Time;durP1;ratioP1;P1;durP2;ratioP2;P2;SDS_P1;SDS_P2;PMS_P1;PMS_P2;Temp;Humidity;BMP_temperature;BMP_pressure;BME280_temperature;BME280_humidity;BME280_pressure;Samples;Min_cycle;Max_cycle;Signal;HPM_P1;HPM_P2
2023/04/29 00:01:25;;;;;;;;;;;13.00;99.90;;;;;;5075877;28;19955;-52
2023/04/29 00:03:51;;;;;;;;;;;12.90;99.90;;;;;;5075738;28;19912;-53
2023/04/29 00:06:17;;;;;;;;;;;12.90;99.90;;;;;;5076115;28;19924;-52
2023/04/29 00:08:43;;;;;;;;;;;12.90;99.90;;;;;;5075853;28;19985;-52
2023/04/29 00:11:10;;;;;;;;;;;12.90;99.90;;;;;;5075728;28;19924;-53
2023/04/29 00:13:36;;;;;;;;;;;12.80;99.90;;;;;;5075681;28;20248;-52
2023/04/29 00:16:02;;;;;;;;;;;12.80;99.90;;;;;;5075748;28;20021;-52
2023/04/29 00:18:28;;;;;;;;;;;12.80;99.90;;;;;;5075424;28;19920;-52
2023/04/29 00:20:54;;;;;;;;;;;12.70;99.90;;;;;;5075804;28;19912;-52
2023/04/29 00:23:20;;;;;;;;;;;12.70;99.90;;;;;;5075679;28;20356;-52
2023/04/29 00:25:45;;;;;;;;;;;12.70;99.90;;;;;;5075530;28;20067;-52
2023/04/29 00:28:11;;;;;;;;;;;12.70;99.90;;;;;;5075621;28;19912;-52
2023/04/29 00:30:37;;;;;;;;;;;12.60;99.90;;;;;;5075688;28;19939;-53
2023/04/29 00:33:03;;;;;;;;;;;12.60;99.90;;;;;;5075321;28;19913;-52
2023/04/29 00:35:29;;;;;;;;;;;12.60;99.90;;;;;;5075609;28;19923;-52
2023/04/29 00:37:55;;;;;;;;;;;12.60;99.90;;;;;;5075338;28;19917;-52
2023/04/29 00:40:21;;;;;;;;;;;12.60;99.90;;;;;;5075317;28;20396;-52
2023/04/29 00:42:46;;;;;;;;;;;12.60;99.90;;;;;;5075484;28;19915;-52
2023/04/29 00:45:12;;;;;;;;;;;12.60;99.90;;;;;;5075314;28;19916;-52
2023/04/29 00:47:38;;;;;;;;;;;12.60;99.90;;;;;;5075246;28;19918;-52
2023/04/29 00:50:05;;;;;;;;;;;12.50;99.90;;;;;;5056525;28;19969;-52
2023/04/29 00:52:31;;;;;;;;;;;12.50;99.90;;;;;;5057135;28;19923;-53
2023/04/29 00:54:58;;;;;;;;;;;12.50;99.90;;;;;;5075055;28;19942;-52
2023/04/29 00:57:27;;;;;;;;;;;12.50;99.90;;;;;;5075516;28;19958;-52
2023/04/29 00:59:54;;;;;;;;;;;12.60;99.90;;;;;;5075113;28;19912;-52
2023/04/29 01:02:20;;;;;;;;;;;12.60;99.90;;;;;;5075154;28;19912;-52
2023/04/29 01:04:46;;;;;;;;;;;12.60;99.90;;;;;;5057119;28;20385;-52
2023/04/29 01:07:36;;;;;;;;;;;12.60;99.90;;;;;;5057000;28;19912;-52
2023/04/29 01:10:08;;;;;;;;;;;12.50;99.90;;;;;;5056967;28;19920;-52
2023/04/29 01:12:40;;;;;;;;;;;12.60;99.90;;;;;;5090607;28;19912;-52
2023/04/29 01:15:18;;;;;;;;;;;12.50;99.90;;;;;;5090293;28;19920;-52
2023/04/29 01:18:03;;;;;;;;;;;12.50;99.90;;;;;;5090333;28;19924;-53
2023/04/29 01:20:30;;;;;;;;;;;12.50;99.90;;;;;;5074896;28;20281;-52
2023/04/29 01:22:55;;;;;;;;;;;12.50;99.90;;;;;;5074761;28;20336;-52
2023/04/29 01:25:22;;;;;;;;;;;12.40;99.90;;;;;;5056971;28;19912;-52
2023/04/29 01:28:27;;;;;;;;;;;12.40;99.90;;;;;;5074009;28;19913;-52
2023/04/29 01:30:53;;;;;;;;;;;12.40;99.90;;;;;;5056975;28;19952;-52
2023/04/29 01:33:19;;;;;;;;;;;12.40;99.90;;;;;;5056929;28;19920;-52
2023/04/29 01:36:05;;;;;;;;;;;12.50;99.90;;;;;;5090178;28;19938;-52
2023/04/29 01:38:40;;;;;;;;;;;12.50;99.90;;;;;;5056842;28;19927;-52
2023/04/29 01:41:27;;;;;;;;;;;12.50;99.90;;;;;;5056784;28;19920;-52
2023/04/29 01:44:01;;;;;;;;;;;12.50;99.90;;;;;;5056572;28;19920;-52
2023/04/29 01:46:27;;;;;;;;;;;12.40;99.90;;;;;;5056801;28;20290;-52
2023/04/29 01:48:56;;;;;;;;;;;12.40;99.90;;;;;;5056647;28;20015;-52
2023/04/29 01:51:22;;;;;;;;;;;12.40;99.90;;;;;;5074501;28;19997;-52
2023/04/29 01:53:48;;;;;;;;;;;12.40;99.90;;;;;;5056677;28;19920;-52
2023/04/29 01:56:14;;;;;;;;;;;12.40;99.90;;;;;;5090062;28;20007;-53
2023/04/29 01:58:58;;;;;;;;;;;12.30;99.90;;;;;;5074399;28;19942;-52
2023/04/29 02:01:52;;;;;;;;;;;12.30;99.90;;;;;;5059847;28;20286;-52
2023/04/29 02:04:18;;;;;;;;;;;12.20;99.90;;;;;;5060377;28;19934;-52
2023/04/29 02:06:45;;;;;;;;;;;12.30;99.90;;;;;;5093925;28;19916;-52
2023/04/29 02:09:11;;;;;;;;;;;12.30;99.90;;;;;;5078190;28;19917;-52
2023/04/29 02:11:47;;;;;;;;;;;12.30;99.90;;;;;;5060055;28;19913;-52
2023/04/29 02:14:13;;;;;;;;;;;12.30;99.90;;;;;;5060332;28;19920;-52
2023/04/29 02:16:38;;;;;;;;;;;12.30;99.90;;;;;;5078084;28;19936;-52
2023/04/29 02:19:06;;;;;;;;;;;12.30;99.90;;;;;;5093447;28;19956;-52
2023/04/29 02:21:33;;;;;;;;;;;12.20;99.90;;;;;;5060163;28;20369;-53
2023/04/29 02:24:00;;;;;;;;;;;12.20;99.90;;;;;;5093618;28;20010;-53
2023/04/29 02:26:25;;;;;;;;;;;12.20;99.90;;;;;;5093336;28;19956;-53
2023/04/29 02:28:56;;;;;;;;;;;12.20;99.90;;;;;;5093513;28;19972;-53
2023/04/29 02:31:21;;;;;;;;;;;12.20;99.90;;;;;;5093587;28;19919;-52
2023/04/29 02:33:48;;;;;;;;;;;12.20;99.90;;;;;;5093216;28;19920;-52
2023/04/29 02:36:13;;;;;;;;;;;12.20;99.90;;;;;;5077718;28;20289;-53
2023/04/29 02:38:39;;;;;;;;;;;12.20;99.90;;;;;;5077808;28;19916;-53
2023/04/29 02:41:05;;;;;;;;;;;12.10;99.90;;;;;;5059517;28;20259;-53
2023/04/29 02:43:31;;;;;;;;;;;12.10;99.90;;;;;;5059690;28;19966;-53
2023/04/29 02:45:59;;;;;;;;;;;12.10;99.90;;;;;;5093362;28;19917;-53
2023/04/29 02:48:25;;;;;;;;;;;12.10;99.90;;;;;;5093018;28;20043;-53
2023/04/29 02:50:51;;;;;;;;;;;12.10;99.90;;;;;;5077563;28;20373;-53
2023/04/29 02:53:17;;;;;;;;;;;12.10;99.90;;;;;;5059390;28;19913;-53
2023/04/29 02:55:43;;;;;;;;;;;12.10;99.90;;;;;;5059367;28;19972;-52
2023/04/29 02:58:09;;;;;;;;;;;12.10;99.90;;;;;;5077594;28;20065;-53
2023/04/29 03:00:35;;;;;;;;;;;12.10;99.90;;;;;;5077361;28;19916;-53
2023/04/29 03:03:01;;;;;;;;;;;12.10;99.90;;;;;;5059313;28;19919;-52
2023/04/29 03:05:27;;;;;;;;;;;12.10;99.90;;;;;;5059223;28;19982;-53
2023/04/29 03:07:53;;;;;;;;;;;12.10;99.90;;;;;;5092699;28;19916;-52
2023/04/29 03:10:19;;;;;;;;;;;12.10;99.90;;;;;;5092664;28;20274;-53
2023/04/29 03:12:45;;;;;;;;;;;12.10;99.90;;;;;;5058077;28;19988;-52
2023/04/29 03:15:11;;;;;;;;;;;12.10;99.90;;;;;;5076872;28;19964;-52
2023/04/29 03:17:37;;;;;;;;;;;12.10;99.90;;;;;;5076671;28;19920;-53
2023/04/29 03:20:03;;;;;;;;;;;12.10;99.90;;;;;;5059152;28;20011;-53
2023/04/29 03:22:29;;;;;;;;;;;12.00;99.90;;;;;;5058780;28;19916;-53
2023/04/29 03:24:55;;;;;;;;;;;12.00;99.90;;;;;;5077092;28;19916;-53
2023/04/29 03:27:21;;;;;;;;;;;12.00;99.90;;;;;;5059033;28;19920;-52
2023/04/29 03:29:48;;;;;;;;;;;12.00;99.90;;;;;;5092347;28;19916;-53
2023/04/29 03:32:14;;;;;;;;;;;12.00;99.90;;;;;;5092254;28;20361;-53
2023/04/29 03:34:40;;;;;;;;;;;12.00;99.90;;;;;;5058768;28;19923;-53
2023/04/29 03:37:24;;;;;;;;;;;12.00;99.90;;;;;;5058406;28;19916;-53
2023/04/29 03:39:57;;;;;;;;;;;12.00;99.90;;;;;;5058573;28;19923;-53
2023/04/29 03:42:22;;;;;;;;;;;12.00;99.90;;;;;;5092106;28;19912;-53
2023/04/29 03:44:48;;;;;;;;;;;12.00;99.90;;;;;;5058435;28;19958;-52
2023/04/29 03:47:14;;;;;;;;;;;12.00;99.90;;;;;;5058772;28;19912;-52
2023/04/29 03:49:40;;;;;;;;;;;12.00;99.90;;;;;;5076270;28;19916;-53
2023/04/29 03:52:06;;;;;;;;;;;12.00;99.90;;;;;;5058100;28;19919;-52
2023/04/29 03:54:32;;;;;;;;;;;12.10;99.90;;;;;;5091863;28;20336;-53
2023/04/29 03:56:59;;;;;;;;;;;12.10;99.90;;;;;;5058205;28;19920;-53
2023/04/29 03:59:25;;;;;;;;;;;12.10;99.90;;;;;;5058216;28;19958;-53
2023/04/29 04:01:53;;;;;;;;;;;12.00;99.90;;;;;;5058208;28;19966;-53
2023/04/29 04:04:19;;;;;;;;;;;12.00;99.90;;;;;;5091616;28;19908;-53
2023/04/29 04:06:50;;;;;;;;;;;12.00;99.90;;;;;;5058006;28;19917;-53
2023/04/29 04:09:18;;;;;;;;;;;12.00;99.90;;;;;;5058062;28;19923;-52
2023/04/29 04:11:44;;;;;;;;;;;11.90;99.90;;;;;;5057875;28;19913;-53
2023/04/29 04:14:11;;;;;;;;;;;11.90;99.90;;;;;;5057798;28;19916;-53
2023/04/29 04:16:37;;;;;;;;;;;12.00;99.90;;;;;;5091214;28;19968;-53
2023/04/29 04:19:03;;;;;;;;;;;12.00;99.90;;;;;;5075480;28;19924;-53
2023/04/29 04:21:32;;;;;;;;;;;11.90;99.90;;;;;;5057670;28;19913;-53
2023/04/29 04:24:03;;;;;;;;;;;12.00;99.90;;;;;;5057593;28;20249;-53
2023/04/29 04:26:29;;;;;;;;;;;12.00;99.90;;;;;;5057578;28;20378;-53
2023/04/29 04:28:58;;;;;;;;;;;12.10;99.90;;;;;;5075461;28;20019;-53
2023/04/29 04:31:46;;;;;;;;;;;12.10;99.90;;;;;;5057594;28;19919;-53
2023/04/29 04:34:13;;;;;;;;;;;12.10;99.90;;;;;;5057343;28;19920;-52
2023/04/29 04:36:39;;;;;;;;;;;12.00;99.90;;;;;;5057455;28;19916;-52
2023/04/29 04:39:05;;;;;;;;;;;12.10;99.90;;;;;;5091148;28;20004;-52
2023/04/29 04:41:31;;;;;;;;;;;12.10;99.90;;;;;;5057282;28;20274;-53
2023/04/29 04:43:58;;;;;;;;;;;12.20;99.90;;;;;;5090757;28;19917;-53
2023/04/29 04:46:42;;;;;;;;;;;12.20;99.90;;;;;;5075576;28;20372;-53
2023/04/29 04:49:13;;;;;;;;;;;12.30;99.90;;;;;;5090640;28;19916;-53
2023/04/29 04:51:46;;;;;;;;;;;12.30;99.90;;;;;;5091191;28;20361;-53
2023/04/29 04:54:12;;;;;;;;;;;12.30;99.90;;;;;;5057061;28;19923;-52
2023/04/29 04:56:38;;;;;;;;;;;12.30;99.90;;;;;;5090474;28;19920;-53
2023/04/29 04:59:06;;;;;;;;;;;12.40;99.90;;;;;;5057243;28;19912;-53
2023/04/29 05:01:34;;;;;;;;;;;12.40;99.90;;;;;;5057057;28;19913;-53
2023/04/29 05:04:01;;;;;;;;;;;12.50;99.90;;;;;;5074908;28;19912;-53
2023/04/29 05:06:27;;;;;;;;;;;12.60;99.90;;;;;;5075384;28;19922;-53
2023/04/29 05:08:54;;;;;;;;;;;12.60;99.90;;;;;;5090291;28;20452;-52
2023/04/29 05:11:20;;;;;;;;;;;12.60;99.90;;;;;;5056950;28;19940;-53
2023/04/29 05:14:00;;;;;;;;;;;12.50;99.90;;;;;;5056987;28;20480;-52
2023/04/29 05:16:26;;;;;;;;;;;12.50;99.90;;;;;;5056569;28;19920;-53
2023/04/29 05:18:53;;;;;;;;;;;12.60;99.90;;;;;;5056699;28;19926;-53
2023/04/29 05:21:19;;;;;;;;;;;12.50;99.90;;;;;;5090358;28;20539;-53
2023/04/29 05:23:48;;;;;;;;;;;12.50;99.90;;;;;;5056780;28;19916;-53
2023/04/29 05:26:13;;;;;;;;;;;12.50;99.90;;;;;;5074780;28;20395;-52
2023/04/29 05:28:39;;;;;;;;;;;12.60;99.90;;;;;;5056703;28;19917;-53
2023/04/29 05:31:07;;;;;;;;;;;12.60;99.90;;;;;;5090174;28;19957;-53
2023/04/29 05:33:32;;;;;;;;;;;12.50;99.90;;;;;;5074887;28;19913;-53
2023/04/29 05:35:58;;;;;;;;;;;12.60;99.90;;;;;;5058679;28;20369;-53
2023/04/29 05:38:27;;;;;;;;;;;12.60;99.90;;;;;;5094455;28;19909;-52
2023/04/29 05:41:02;;;;;;;;;;;12.70;99.90;;;;;;5094472;28;19912;-53
2023/04/29 05:44:06;;;;;;;;;;;12.80;99.90;;;;;;4996982;28;19913;-53
2023/04/29 05:46:32;;;;;;;;;;;12.90;99.90;;;;;;4996744;28;19921;-53
2023/04/29 05:48:58;;;;;;;;;;;13.00;99.90;;;;;;4980519;28;19917;-53
2023/04/29 05:51:24;;;;;;;;;;;13.00;99.90;;;;;;4980455;28;20276;-53
2023/04/29 05:53:50;;;;;;;;;;;13.00;99.90;;;;;;4996557;28;19920;-53
2023/04/29 05:56:18;;;;;;;;;;;13.10;99.90;;;;;;4980386;28;19964;-53
2023/04/29 05:58:43;;;;;;;;;;;13.20;99.90;;;;;;4980264;28;19914;-53
2023/04/29 06:01:09;;;;;;;;;;;13.20;99.90;;;;;;4996637;28;19918;-53
2023/04/29 06:03:35;;;;;;;;;;;13.20;99.90;;;;;;4996730;28;19914;-53
2023/04/29 06:06:21;;;;;;;;;;;13.40;99.90;;;;;;4996255;28;19920;-53
2023/04/29 06:09:04;;;;;;;;;;;13.40;99.90;;;;;;4979982;28;19920;-53
2023/04/29 06:11:32;;;;;;;;;;;13.50;99.90;;;;;;4980261;28;20005;-53
2023/04/29 06:14:00;;;;;;;;;;;13.50;99.90;;;;;;4991614;28;19991;-53
2023/04/29 06:16:26;;;;;;;;;;;13.50;99.90;;;;;;5060036;28;20507;-53
2023/04/29 06:18:53;;;;;;;;;;;13.70;99.90;;;;;;5059940;28;19920;-53
2023/04/29 06:21:19;;;;;;;;;;;13.80;99.90;;;;;;5060177;28;19919;-53
2023/04/29 06:23:45;;;;;;;;;;;13.80;99.90;;;;;;5093544;28;19918;-53
2023/04/29 06:26:15;;;;;;;;;;;14.00;99.90;;;;;;5059983;28;20070;-53
2023/04/29 06:28:41;;;;;;;;;;;14.00;99.90;;;;;;5077704;28;20385;-53
2023/04/29 06:31:07;;;;;;;;;;;14.20;99.90;;;;;;5059714;28;19919;-53
2023/04/29 06:33:34;;;;;;;;;;;14.20;99.90;;;;;;5059895;28;19912;-53
2023/04/29 06:35:59;;;;;;;;;;;14.30;99.90;;;;;;5059607;28;19916;-53
2023/04/29 06:38:44;;;;;;;;;;;14.30;99.90;;;;;;5078039;28;19919;-53
2023/04/29 06:41:28;;;;;;;;;;;14.50;99.90;;;;;;5093136;28;19917;-52
2023/04/29 06:44:15;;;;;;;;;;;14.50;99.90;;;;;;5077213;28;19934;-53
2023/04/29 06:47:07;;;;;;;;;;;14.60;99.90;;;;;;5076399;28;20370;-53
2023/04/29 06:49:47;;;;;;;;;;;14.70;99.90;;;;;;5059483;28;19920;-53
2023/04/29 06:52:13;;;;;;;;;;;14.80;99.90;;;;;;5059477;28;20365;-53
2023/04/29 06:54:41;;;;;;;;;;;14.80;99.90;;;;;;5059467;28;19913;-53
2023/04/29 06:57:07;;;;;;;;;;;14.90;99.90;;;;;;5092682;28;19912;-53
2023/04/29 06:59:33;;;;;;;;;;;15.10;99.90;;;;;;5093063;28;19920;-53
2023/04/29 07:01:58;;;;;;;;;;;15.10;99.90;;;;;;5077531;28;19974;-53
2023/04/29 07:04:24;;;;;;;;;;;15.20;99.90;;;;;;5077085;28;19919;-53
2023/04/29 07:06:52;;;;;;;;;;;15.20;99.90;;;;;;5077220;28;19990;-53
2023/04/29 07:09:18;;;;;;;;;;;15.10;99.90;;;;;;5092773;28;20026;-53
2023/04/29 07:11:44;;;;;;;;;;;15.30;99.90;;;;;;5058968;28;20401;-53
2023/04/29 07:14:10;;;;;;;;;;;15.30;99.90;;;;;;5077044;28;19923;-53
2023/04/29 07:16:36;;;;;;;;;;;15.40;99.90;;;;;;5077033;28;19912;-53
2023/04/29 07:19:01;;;;;;;;;;;15.40;99.90;;;;;;5076652;28;19990;-53
2023/04/29 07:21:27;;;;;;;;;;;15.40;99.90;;;;;;5077026;28;20297;-53
2023/04/29 07:23:54;;;;;;;;;;;15.60;99.90;;;;;;5076848;28;19912;-53
2023/04/29 07:26:20;;;;;;;;;;;15.70;99.90;;;;;;5076726;28;19920;-53
2023/04/29 07:28:46;;;;;;;;;;;15.80;99.90;;;;;;5059016;28;19916;-53
2023/04/29 07:31:13;;;;;;;;;;;15.80;99.90;;;;;;5058735;28;19927;-53
2023/04/29 07:33:39;;;;;;;;;;;15.80;98.50;;;;;;5058513;28;19916;-53
2023/04/29 07:36:08;;;;;;;;;;;15.80;98.40;;;;;;5058655;28;19919;-53
2023/04/29 07:38:35;;;;;;;;;;;16.10;98.20;;;;;;5058763;28;20377;-53
2023/04/29 07:41:03;;;;;;;;;;;16.30;99.30;;;;;;5058493;28;19912;-53
2023/04/29 07:43:29;;;;;;;;;;;16.30;98.00;;;;;;5092060;28;20371;-53
2023/04/29 07:45:55;;;;;;;;;;;16.40;97.60;;;;;;5058481;28;19919;-53
2023/04/29 07:48:21;;;;;;;;;;;16.60;96.80;;;;;;5058389;28;19912;-53
2023/04/29 07:50:47;;;;;;;;;;;16.50;96.20;;;;;;5091953;28;20054;-53
2023/04/29 07:53:14;;;;;;;;;;;16.80;95.40;;;;;;5076117;28;19913;-53
2023/04/29 07:55:40;;;;;;;;;;;17.10;94.80;;;;;;5076119;28;19917;-53
2023/04/29 07:58:07;;;;;;;;;;;17.50;93.70;;;;;;5057735;28;19920;-53
2023/04/29 08:00:33;;;;;;;;;;;17.70;92.50;;;;;;5091729;28;19913;-53
2023/04/29 08:02:59;;;;;;;;;;;17.80;92.00;;;;;;5058099;28;19958;-53
2023/04/29 08:05:25;;;;;;;;;;;18.00;91.30;;;;;;5058330;28;20003;-53
2023/04/29 08:07:51;;;;;;;;;;;17.90;91.00;;;;;;5057958;28;20366;-53
2023/04/29 08:10:17;;;;;;;;;;;17.90;89.70;;;;;;5075749;28;19916;-53
2023/04/29 08:12:49;;;;;;;;;;;18.10;90.50;;;;;;5076008;28;19912;-53
2023/04/29 08:15:15;;;;;;;;;;;18.20;86.60;;;;;;5075657;28;20012;-53
2023/04/29 08:17:41;;;;;;;;;;;18.40;90.50;;;;;;5075600;28;20352;-53
2023/04/29 08:20:08;;;;;;;;;;;18.60;87.60;;;;;;5091456;28;19926;-53
2023/04/29 08:22:33;;;;;;;;;;;18.70;86.70;;;;;;5075521;28;19919;-53
2023/04/29 08:25:01;;;;;;;;;;;18.90;87.20;;;;;;5075694;28;19912;-53
2023/04/29 08:27:27;;;;;;;;;;;19.00;87.90;;;;;;5075700;28;19912;-53
2023/04/29 08:29:54;;;;;;;;;;;19.20;84.70;;;;;;5075425;28;19956;-53
2023/04/29 08:32:21;;;;;;;;;;;19.20;80.00;;;;;;5075659;28;19913;-53
2023/04/29 08:34:47;;;;;;;;;;;19.20;80.60;;;;;;5075812;28;19913;-53
2023/04/29 08:37:14;;;;;;;;;;;19.10;80.20;;;;;;5075148;28;20336;-53
2023/04/29 08:39:42;;;;;;;;;;;19.40;81.10;;;;;;5075445;28;19916;-53
2023/04/29 08:42:08;;;;;;;;;;;19.50;77.80;;;;;;5075226;28;20116;-53
2023/04/29 08:44:35;;;;;;;;;;;19.60;80.10;;;;;;5075306;28;20386;-53
2023/04/29 08:47:01;;;;;;;;;;;19.60;78.00;;;;;;5075299;28;19931;-53
2023/04/29 08:49:28;;;;;;;;;;;19.60;79.60;;;;;;5075125;28;19920;-53
2023/04/29 08:51:53;;;;;;;;;;;19.60;78.50;;;;;;5075197;28;19939;-53
2023/04/29 08:54:19;;;;;;;;;;;19.40;81.00;;;;;;5075318;28;19920;-53
2023/04/29 08:56:46;;;;;;;;;;;19.50;81.70;;;;;;5075107;28;19917;-53
2023/04/29 08:59:16;;;;;;;;;;;19.40;86.30;;;;;;5075046;28;19908;-53
2023/04/29 09:01:42;;;;;;;;;;;19.40;84.10;;;;;;5074975;28;19920;-53
2023/04/29 09:04:08;;;;;;;;;;;19.50;80.90;;;;;;5074849;28;19920;-53
2023/04/29 09:06:34;;;;;;;;;;;19.10;84.00;;;;;;5075034;28;19927;-53
2023/04/29 09:09:00;;;;;;;;;;;19.20;86.00;;;;;;5074920;28;20285;-53
2023/04/29 09:11:27;;;;;;;;;;;19.40;83.30;;;;;;5074150;28;20473;-53
2023/04/29 09:13:57;;;;;;;;;;;19.60;82.60;;;;;;5074861;28;20323;-53
2023/04/29 09:16:23;;;;;;;;;;;19.70;81.20;;;;;;5074989;28;19990;-53
2023/04/29 09:18:50;;;;;;;;;;;19.70;81.30;;;;;;5074613;28;20369;-53
2023/04/29 09:21:16;;;;;;;;;;;19.70;77.50;;;;;;5074921;28;20476;-53
2023/04/29 09:23:42;;;;;;;;;;;19.70;74.60;;;;;;5074945;28;19951;-53
2023/04/29 09:26:07;;;;;;;;;;;19.80;79.70;;;;;;5074699;28;19912;-53
2023/04/29 09:28:33;;;;;;;;;;;19.70;76.80;;;;;;5074760;28;20289;-53
2023/04/29 09:31:00;;;;;;;;;;;19.70;74.50;;;;;;5074820;28;19912;-53
2023/04/29 09:33:30;;;;;;;;;;;19.80;75.60;;;;;;5074627;28;19912;-53
2023/04/29 09:35:55;;;;;;;;;;;20.10;74.90;;;;;;5074580;28;20281;-53
2023/04/29 09:38:21;;;;;;;;;;;20.30;71.50;;;;;;5074750;28;19913;-53
2023/04/29 09:40:47;;;;;;;;;;;20.50;70.10;;;;;;5074484;28;20001;-53
2023/04/29 09:43:14;;;;;;;;;;;20.80;70.90;;;;;;5074669;28;19948;-53
2023/04/29 09:45:44;;;;;;;;;;;21.10;67.70;;;;;;5074575;28;19920;-53
2023/04/29 09:48:11;;;;;;;;;;;21.20;68.60;;;;;;5074460;28;19970;-53
2023/04/29 09:50:38;;;;;;;;;;;21.00;66.30;;;;;;5074691;28;20374;-53
2023/04/29 09:53:05;;;;;;;;;;;21.40;66.30;;;;;;5074612;28;19919;-53
2023/04/29 09:55:30;;;;;;;;;;;21.60;63.50;;;;;;5074308;28;20388;-53
2023/04/29 09:57:57;;;;;;;;;;;21.20;65.70;;;;;;5074784;28;20023;-53
2023/04/29 10:00:24;;;;;;;;;;;21.20;67.50;;;;;;5074312;28;19916;-53
2023/04/29 10:02:52;;;;;;;;;;;21.40;63.80;;;;;;5074361;28;19916;-53
2023/04/29 10:05:18;;;;;;;;;;;21.20;64.00;;;;;;5074579;28;20046;-53
2023/04/29 10:07:46;;;;;;;;;;;21.20;64.20;;;;;;5074053;28;19916;-53
2023/04/29 10:10:12;;;;;;;;;;;21.20;61.60;;;;;;5074210;28;19920;-53
2023/04/29 10:12:39;;;;;;;;;;;21.10;62.60;;;;;;5074504;28;20382;-53
2023/04/29 10:15:21;;;;;;;;;;;21.10;61.40;;;;;;5074265;28;19913;-53
2023/04/29 10:18:00;;;;;;;;;;;21.20;60.20;;;;;;5074429;28;20045;-53
2023/04/29 10:20:27;;;;;;;;;;;20.80;62.20;;;;;;5074339;28;19924;-53
2023/04/29 10:22:53;;;;;;;;;;;20.50;62.70;;;;;;5077283;28;19955;-53
2023/04/29 10:25:21;;;;;;;;;;;20.70;62.70;;;;;;5077968;28;19913;-53
2023/04/29 10:27:47;;;;;;;;;;;20.60;63.00;;;;;;5078038;28;19931;-53
2023/04/29 10:30:14;;;;;;;;;;;20.70;63.90;;;;;;5077896;28;19963;-53
2023/04/29 10:32:42;;;;;;;;;;;20.50;65.10;;;;;;5077788;28;19923;-53
2023/04/29 10:35:08;;;;;;;;;;;20.40;62.90;;;;;;5077851;28;19919;-53
2023/04/29 10:37:37;;;;;;;;;;;20.50;59.70;;;;;;5077757;28;20279;-53
2023/04/29 10:40:03;;;;;;;;;;;20.40;60.80;;;;;;5077649;28;19916;-53
2023/04/29 10:42:33;;;;;;;;;;;20.20;60.40;;;;;;5077747;28;19916;-53
2023/04/29 10:45:17;;;;;;;;;;;20.20;60.90;;;;;;5077536;28;19967;-53
2023/04/29 10:48:05;;;;;;;;;;;20.30;62.90;;;;;;5077649;28;20011;-53
2023/04/29 10:50:30;;;;;;;;;;;20.50;64.00;;;;;;5060550;28;20504;-53
2023/04/29 10:52:56;;;;;;;;;;;20.60;64.90;;;;;;5077365;28;19948;-53
2023/04/29 10:55:23;;;;;;;;;;;20.50;64.70;;;;;;5077472;28;20281;-53
2023/04/29 10:57:52;;;;;;;;;;;20.60;65.40;;;;;;5077265;28;20365;-53
2023/04/29 11:00:25;;;;;;;;;;;20.60;62.70;;;;;;5077346;28;19919;-53
2023/04/29 11:02:52;;;;;;;;;;;20.50;61.40;;;;;;5077441;28;20015;-53
2023/04/29 11:05:28;;;;;;;;;;;20.80;62.60;;;;;;5077375;28;19924;-53
2023/04/29 11:08:07;;;;;;;;;;;20.70;62.10;;;;;;5077196;28;19938;-53
2023/04/29 11:10:37;;;;;;;;;;;20.60;59.70;;;;;;5077159;28;19919;-53
2023/04/29 11:13:22;;;;;;;;;;;20.70;61.30;;;;;;5077047;28;19920;-53
2023/04/29 11:15:47;;;;;;;;;;;21.00;61.70;;;;;;5077185;28;19923;-53
2023/04/29 11:18:13;;;;;;;;;;;21.10;59.60;;;;;;5076967;28;20278;-53
2023/04/29 11:20:58;;;;;;;;;;;21.00;60.10;;;;;;5076868;28;19959;-53
2023/04/29 11:23:23;;;;;;;;;;;21.10;61.60;;;;;;5077037;28;19926;-53
2023/04/29 11:25:49;;;;;;;;;;;21.00;60.30;;;;;;5076824;28;19916;-53
2023/04/29 11:28:15;;;;;;;;;;;21.10;59.60;;;;;;5076742;28;19999;-53
2023/04/29 11:30:41;;;;;;;;;;;21.20;59.60;;;;;;5076743;28;19917;-53
2023/04/29 11:33:07;;;;;;;;;;;21.20;58.90;;;;;;5075915;28;19961;-53
2023/04/29 11:35:33;;;;;;;;;;;21.00;58.50;;;;;;5076545;28;19976;-53
2023/04/29 11:37:59;;;;;;;;;;;20.90;60.50;;;;;;5076634;28;19909;-53
2023/04/29 11:40:25;;;;;;;;;;;21.20;63.50;;;;;;5076324;28;19912;-53
2023/04/29 11:42:51;;;;;;;;;;;21.10;59.30;;;;;;5076598;28;20602;-53
2023/04/29 11:45:17;;;;;;;;;;;21.30;61.30;;;;;;5076624;28;19912;-53
2023/04/29 11:47:44;;;;;;;;;;;21.40;61.40;;;;;;5076439;28;20181;-53
2023/04/29 11:50:10;;;;;;;;;;;21.20;59.40;;;;;;5076261;28;20263;-53
2023/04/29 11:52:37;;;;;;;;;;;21.20;59.40;;;;;;5076446;28;19962;-53
2023/04/29 11:55:04;;;;;;;;;;;21.10;61.20;;;;;;5076166;28;19919;-53
2023/04/29 11:57:30;;;;;;;;;;;21.10;61.80;;;;;;5076185;28;19959;-53
2023/04/29 11:59:56;;;;;;;;;;;21.10;59.00;;;;;;5076221;28;19916;-53
2023/04/29 12:02:22;;;;;;;;;;;21.20;61.60;;;;;;5075932;28;19913;-53
2023/04/29 12:04:48;;;;;;;;;;;21.10;60.30;;;;;;5075958;28;20417;-53
2023/04/29 12:07:15;;;;;;;;;;;21.20;61.90;;;;;;5076173;28;19919;-53
2023/04/29 12:09:42;;;;;;;;;;;21.20;63.10;;;;;;5075702;28;19994;-53
2023/04/29 12:12:08;;;;;;;;;;;21.00;67.50;;;;;;5075789;28;20129;-53
2023/04/29 12:14:34;;;;;;;;;;;21.10;68.80;;;;;;5076043;28;19915;-53
2023/04/29 12:17:00;;;;;;;;;;;21.30;73.10;;;;;;5075352;28;19923;-54
2023/04/29 12:19:26;;;;;;;;;;;21.30;74.70;;;;;;5075844;28;20018;-53
2023/04/29 12:21:52;;;;;;;;;;;21.40;73.50;;;;;;5075788;28;20420;-53
2023/04/29 12:24:20;;;;;;;;;;;21.40;72.60;;;;;;5075614;28;19963;-53
2023/04/29 12:26:45;;;;;;;;;;;21.50;74.30;;;;;;5075734;28;19917;-53
2023/04/29 12:29:12;;;;;;;;;;;21.60;73.80;;;;;;5075487;28;20008;-53
2023/04/29 12:31:38;;;;;;;;;;;21.70;74.30;;;;;;5075491;28;19966;-53
2023/04/29 12:34:04;;;;;;;;;;;21.90;70.20;;;;;;5075492;28;19912;-53
2023/04/29 12:36:30;;;;;;;;;;;21.90;70.90;;;;;;5075504;28;19924;-53
2023/04/29 12:38:57;;;;;;;;;;;22.50;68.30;;;;;;5075368;28;19960;-53
2023/04/29 12:41:38;;;;;;;;;;;23.30;66.30;;;;;;5075225;28;20354;-53
2023/04/29 12:44:05;;;;;;;;;;;23.00;63.10;;;;;;5075184;28;19969;-53
2023/04/29 12:46:35;;;;;;;;;;;23.70;61.70;;;;;;5075343;28;20384;-53
2023/04/29 12:49:03;;;;;;;;;;;24.00;58.90;;;;;;5075269;28;19940;-53
2023/04/29 12:51:32;;;;;;;;;;;24.50;56.90;;;;;;5075092;28;19964;-54
2023/04/29 12:54:02;;;;;;;;;;;24.80;57.20;;;;;;5075183;28;20598;-54
2023/04/29 12:56:28;;;;;;;;;;;24.80;58.20;;;;;;5075131;28;20328;-53
2023/04/29 12:58:54;;;;;;;;;;;25.40;57.90;;;;;;5075115;28;19913;-54
2023/04/29 13:01:20;;;;;;;;;;;25.60;57.50;;;;;;5075111;28;19912;-54
2023/04/29 13:03:46;;;;;;;;;;;25.80;56.70;;;;;;5075041;28;19964;-54
2023/04/29 13:06:12;;;;;;;;;;;25.70;51.70;;;;;;5074913;28;19916;-54
2023/04/29 13:08:37;;;;;;;;;;;25.40;50.90;;;;;;5074886;28;19912;-54
2023/04/29 13:11:03;;;;;;;;;;;24.80;52.40;;;;;;5075512;28;19916;-54
2023/04/29 13:13:29;;;;;;;;;;;24.70;53.30;;;;;;5074846;28;20012;-54
2023/04/29 13:15:55;;;;;;;;;;;24.80;54.40;;;;;;5074921;28;19916;-54
2023/04/29 13:18:20;;;;;;;;;;;24.90;51.60;;;;;;5074731;28;19931;-54
2023/04/29 13:20:46;;;;;;;;;;;25.20;52.70;;;;;;5074856;28;19923;-54
2023/04/29 13:23:12;;;;;;;;;;;25.30;49.90;;;;;;5074763;28;19955;-54
2023/04/29 13:25:38;;;;;;;;;;;24.70;51.20;;;;;;5074853;28;19982;-54
2023/04/29 13:28:06;;;;;;;;;;;25.30;52.20;;;;;;5074684;28;19912;-54
2023/04/29 13:30:32;;;;;;;;;;;25.40;48.20;;;;;;5074869;28;19912;-53
2023/04/29 13:32:58;;;;;;;;;;;25.30;48.10;;;;;;5074991;28;20007;-54
2023/04/29 13:35:24;;;;;;;;;;;25.30;48.20;;;;;;5074969;28;19943;-54
2023/04/29 13:37:50;;;;;;;;;;;25.00;47.50;;;;;;5074592;28;19924;-54
2023/04/29 13:40:15;;;;;;;;;;;24.50;50.30;;;;;;5074766;28;19912;-54
2023/04/29 13:42:41;;;;;;;;;;;24.80;50.40;;;;;;5074615;28;19919;-54
2023/04/29 13:45:07;;;;;;;;;;;24.70;49.30;;;;;;5074765;28;19914;-54
2023/04/29 13:47:33;;;;;;;;;;;25.20;51.70;;;;;;5074694;28;20361;-54
2023/04/29 13:49:59;;;;;;;;;;;25.60;47.90;;;;;;5074601;28;19943;-53
2023/04/29 13:52:24;;;;;;;;;;;25.60;48.60;;;;;;5074638;28;19913;-53
2023/04/29 13:54:50;;;;;;;;;;;25.20;48.60;;;;;;5074775;28;19913;-53
2023/04/29 13:57:16;;;;;;;;;;;24.50;50.20;;;;;;5076833;28;19944;-54
2023/04/29 13:59:42;;;;;;;;;;;24.40;47.50;;;;;;5078447;28;19913;-53
2023/04/29 14:02:08;;;;;;;;;;;24.10;50.40;;;;;;5078479;28;19913;-54
2023/04/29 14:04:34;;;;;;;;;;;24.00;50.30;;;;;;5078342;28;19965;-54
2023/04/29 14:07:00;;;;;;;;;;;23.90;50.80;;;;;;5078248;28;19912;-54
2023/04/29 14:09:26;;;;;;;;;;;24.40;52.50;;;;;;5078188;28;19952;-54
2023/04/29 14:11:52;;;;;;;;;;;24.50;49.00;;;;;;5078174;28;20034;-54
2023/04/29 14:14:18;;;;;;;;;;;24.30;48.40;;;;;;5078244;28;19950;-53
2023/04/29 14:16:44;;;;;;;;;;;24.00;52.10;;;;;;5077945;28;19952;-53
2023/04/29 14:19:10;;;;;;;;;;;24.00;53.50;;;;;;5077831;28;19931;-53
2023/04/29 14:21:36;;;;;;;;;;;23.90;52.10;;;;;;5078193;28;19913;-53